CheckWX is a tool to help pilots better visualize weather data.  It is not intended as a substitute for an official pre-flight weather briefing.

07:13:02 UTC

LTFH TAF
Samsun Çarşamba Airport
Samsun, Turkey
TAF LTFH 200440Z 2006/2015 30009KT 9999 SCT036 BKN100 TEMPO 2006/2009 -TSRA FEW025CB BKN030 BKN090

Jun-20@
06:00 UTC

Jun-20 @ 06:00 UTC

Jun-20@
15:00 UTC

Jun-20 @ 15:00 UTC

TAF LTFH 200440Z 2006/2015 30009KT 9999 SCT036 BKN100
Wind
  • 300° at 9 KTS
Cloud Levels
  • Scattered at 3,600' AGL
  • Broken at 10,000' AGL

Jun-20@
06:00 UTC

Jun-20 @ 06:00 UTC

Jun-20@
09:00 UTC

Jun-20 @ 09:00 UTC

TEMPO 2006/2009 -TSRA FEW025CB BKN030 BKN090

Temporary

Temporary Changes expected for less than half the time period

Conditions
Light Thunderstorm, Light Rain
Cloud Levels
  • Few at 2,500' AGL
  • Broken at 3,000' AGL
  • Broken at 9,000' AGL